sensor_id;sensor_type;location;lat;lon;timestamp;P1;durP1;ratioP1;P2;durP2;ratioP2
52894;SDS011;38759;53.396;6.722;2023-12-07T00:02:12;16.23;;;10.30;;
52894;SDS011;38759;53.396;6.722;2023-12-07T00:04:38;14.18;;;9.32;;
52894;SDS011;38759;53.396;6.722;2023-12-07T00:07:03;19.70;;;9.27;;
52894;SDS011;38759;53.396;6.722;2023-12-07T00:09:29;14.70;;;9.32;;
52894;SDS011;38759;53.396;6.722;2023-12-07T00:11:55;24.45;;;9.85;;
52894;SDS011;38759;53.396;6.722;2023-12-07T00:14:20;14.00;;;8.88;;
52894;SDS011;38759;53.396;6.722;2023-12-07T00:16:46;15.82;;;8.90;;
52894;SDS011;38759;53.396;6.722;2023-12-07T00:19:12;15.50;;;9.55;;
52894;SDS011;38759;53.396;6.722;2023-12-07T00:21:37;13.02;;;8.77;;
52894;SDS011;38759;53.396;6.722;2023-12-07T00:24:03;17.27;;;9.07;;
52894;SDS011;38759;53.396;6.722;2023-12-07T00:26:29;14.55;;;9.98;;
52894;SDS011;38759;53.396;6.722;2023-12-07T00:28:55;16.55;;;10.63;;
52894;SDS011;38759;53.396;6.722;2023-12-07T00:31:20;16.17;;;10.52;;
52894;SDS011;38759;53.396;6.722;2023-12-07T00:33:46;19.35;;;10.85;;
52894;SDS011;38759;53.396;6.722;2023-12-07T00:36:12;15.68;;;11.15;;
52894;SDS011;38759;53.396;6.722;2023-12-07T00:38:37;19.65;;;10.43;;
52894;SDS011;38759;53.396;6.722;2023-12-07T00:41:03;14.95;;;9.38;;
52894;SDS011;38759;53.396;6.722;2023-12-07T00:43:29;16.55;;;9.73;;
52894;SDS011;38759;53.396;6.722;2023-12-07T00:45:54;19.20;;;9.65;;
52894;SDS011;38759;53.396;6.722;2023-12-07T00:48:20;17.75;;;8.52;;
52894;SDS011;38759;53.396;6.722;2023-12-07T00:50:46;13.60;;;8.15;;
52894;SDS011;38759;53.396;6.722;2023-12-07T00:53:12;13.95;;;8.00;;
52894;SDS011;38759;53.396;6.722;2023-12-07T00:55:38;16.05;;;8.20;;
52894;SDS011;38759;53.396;6.722;2023-12-07T00:58:05;14.48;;;8.18;;
52894;SDS011;38759;53.396;6.722;2023-12-07T01:00:30;11.88;;;8.20;;
52894;SDS011;38759;53.396;6.722;2023-12-07T01:02:56;12.27;;;8.38;;
52894;SDS011;38759;53.396;6.722;2023-12-07T01:05:22;16.15;;;8.20;;
52894;SDS011;38759;53.396;6.722;2023-12-07T01:07:47;21.38;;;8.90;;
52894;SDS011;38759;53.396;6.722;2023-12-07T01:10:13;14.27;;;7.82;;
52894;SDS011;38759;53.396;6.722;2023-12-07T01:12:39;16.73;;;9.20;;
52894;SDS011;38759;53.396;6.722;2023-12-07T01:15:04;15.30;;;9.25;;
52894;SDS011;38759;53.396;6.722;2023-12-07T01:17:31;17.52;;;8.90;;
52894;SDS011;38759;53.396;6.722;2023-12-07T01:19:57;13.00;;;9.65;;
52894;SDS011;38759;53.396;6.722;2023-12-07T01:22:22;17.10;;;10.30;;
52894;SDS011;38759;53.396;6.722;2023-12-07T01:24:48;15.55;;;9.80;;
52894;SDS011;38759;53.396;6.722;2023-12-07T01:27:13;13.93;;;9.35;;
52894;SDS011;38759;53.396;6.722;2023-12-07T01:29:39;14.32;;;9.80;;
52894;SDS011;38759;53.396;6.722;2023-12-07T01:32:05;17.80;;;10.27;;
52894;SDS011;38759;53.396;6.722;2023-12-07T01:34:31;22.15;;;9.52;;
52894;SDS011;38759;53.396;6.722;2023-12-07T01:36:57;15.38;;;10.02;;
52894;SDS011;38759;53.396;6.722;2023-12-07T01:39:23;16.77;;;9.88;;
52894;SDS011;38759;53.396;6.722;2023-12-07T01:41:49;14.45;;;9.32;;
52894;SDS011;38759;53.396;6.722;2023-12-07T01:44:16;18.23;;;9.00;;
52894;SDS011;38759;53.396;6.722;2023-12-07T01:46:42;14.98;;;10.18;;
52894;SDS011;38759;53.396;6.722;2023-12-07T01:49:08;14.93;;;9.43;;
52894;SDS011;38759;53.396;6.722;2023-12-07T01:51:34;14.60;;;8.50;;
52894;SDS011;38759;53.396;6.722;2023-12-07T01:54:00;15.38;;;8.20;;
52894;SDS011;38759;53.396;6.722;2023-12-07T01:56:26;16.40;;;8.88;;
52894;SDS011;38759;53.396;6.722;2023-12-07T01:58:52;15.10;;;8.43;;
52894;SDS011;38759;53.396;6.722;2023-12-07T02:01:18;19.92;;;9.52;;
52894;SDS011;38759;53.396;6.722;2023-12-07T02:03:44;14.77;;;8.98;;
52894;SDS011;38759;53.396;6.722;2023-12-07T02:06:10;15.25;;;8.68;;
52894;SDS011;38759;53.396;6.722;2023-12-07T02:08:36;16.45;;;8.98;;
52894;SDS011;38759;53.396;6.722;2023-12-07T02:11:09;16.70;;;9.90;;
52894;SDS011;38759;53.396;6.722;2023-12-07T02:13:38;17.58;;;10.00;;
52894;SDS011;38759;53.396;6.722;2023-12-07T02:16:07;15.13;;;9.20;;
52894;SDS011;38759;53.396;6.722;2023-12-07T02:21:40;19.92;;;9.88;;
52894;SDS011;38759;53.396;6.722;2023-12-07T02:24:18;15.30;;;9.93;;
52894;SDS011;38759;53.396;6.722;2023-12-07T02:26:46;19.52;;;10.90;;
52894;SDS011;38759;53.396;6.722;2023-12-07T02:29:13;16.25;;;10.10;;
52894;SDS011;38759;53.396;6.722;2023-12-07T02:31:38;15.80;;;10.02;;
52894;SDS011;38759;53.396;6.722;2023-12-07T02:34:04;14.13;;;9.63;;
52894;SDS011;38759;53.396;6.722;2023-12-07T02:36:30;16.35;;;10.15;;
52894;SDS011;38759;53.396;6.722;2023-12-07T02:38:59;16.42;;;9.98;;
52894;SDS011;38759;53.396;6.722;2023-12-07T02:41:28;14.15;;;9.63;;
52894;SDS011;38759;53.396;6.722;2023-12-07T02:43:56;17.02;;;9.60;;
52894;SDS011;38759;53.396;6.722;2023-12-07T02:46:23;17.90;;;9.13;;
52894;SDS011;38759;53.396;6.722;2023-12-07T02:48:49;13.55;;;8.70;;
52894;SDS011;38759;53.396;6.722;2023-12-07T02:51:15;13.93;;;8.27;;
52894;SDS011;38759;53.396;6.722;2023-12-07T02:53:40;15.68;;;8.38;;
52894;SDS011;38759;53.396;6.722;2023-12-07T02:56:06;19.10;;;8.88;;
52894;SDS011;38759;53.396;6.722;2023-12-07T02:58:35;18.48;;;9.68;;
52894;SDS011;38759;53.396;6.722;2023-12-07T03:01:01;16.45;;;9.45;;
52894;SDS011;38759;53.396;6.722;2023-12-07T03:03:26;16.20;;;8.77;;
52894;SDS011;38759;53.396;6.722;2023-12-07T03:05:52;15.85;;;9.05;;
52894;SDS011;38759;53.396;6.722;2023-12-07T03:08:17;18.55;;;10.25;;
52894;SDS011;38759;53.396;6.722;2023-12-07T03:10:43;15.57;;;9.30;;
52894;SDS011;38759;53.396;6.722;2023-12-07T03:13:09;17.98;;;9.73;;
52894;SDS011;38759;53.396;6.722;2023-12-07T03:15:34;15.20;;;9.40;;
52894;SDS011;38759;53.396;6.722;2023-12-07T03:18:00;16.67;;;10.07;;
52894;SDS011;38759;53.396;6.722;2023-12-07T03:20:26;17.77;;;10.10;;
52894;SDS011;38759;53.396;6.722;2023-12-07T03:22:51;16.58;;;10.65;;
52894;SDS011;38759;53.396;6.722;2023-12-07T03:25:17;14.25;;;9.23;;
52894;SDS011;38759;53.396;6.722;2023-12-07T03:27:43;16.23;;;10.52;;
52894;SDS011;38759;53.396;6.722;2023-12-07T03:30:09;16.35;;;9.13;;
52894;SDS011;38759;53.396;6.722;2023-12-07T03:32:35;16.17;;;9.27;;
52894;SDS011;38759;53.396;6.722;2023-12-07T03:35:00;15.15;;;9.32;;
52894;SDS011;38759;53.396;6.722;2023-12-07T03:37:26;14.45;;;9.18;;
52894;SDS011;38759;53.396;6.722;2023-12-07T03:39:51;15.65;;;8.77;;
52894;SDS011;38759;53.396;6.722;2023-12-07T03:42:17;14.38;;;8.93;;
52894;SDS011;38759;53.396;6.722;2023-12-07T03:44:43;13.07;;;9.25;;
52894;SDS011;38759;53.396;6.722;2023-12-07T03:47:09;18.48;;;9.23;;
52894;SDS011;38759;53.396;6.722;2023-12-07T03:49:35;15.15;;;9.00;;
52894;SDS011;38759;53.396;6.722;2023-12-07T03:52:01;14.25;;;9.32;;
52894;SDS011;38759;53.396;6.722;2023-12-07T03:54:27;19.15;;;10.32;;
52894;SDS011;38759;53.396;6.722;2023-12-07T03:56:52;19.15;;;10.52;;
52894;SDS011;38759;53.396;6.722;2023-12-07T03:59:18;17.55;;;10.75;;
52894;SDS011;38759;53.396;6.722;2023-12-07T04:01:44;19.77;;;9.85;;
52894;SDS011;38759;53.396;6.722;2023-12-07T04:04:09;19.80;;;9.50;;
52894;SDS011;38759;53.396;6.722;2023-12-07T04:06:35;15.95;;;9.02;;
52894;SDS011;38759;53.396;6.722;2023-12-07T04:09:01;16.42;;;8.25;;
52894;SDS011;38759;53.396;6.722;2023-12-07T04:11:27;17.20;;;10.50;;
52894;SDS011;38759;53.396;6.722;2023-12-07T04:13:53;14.52;;;9.60;;
52894;SDS011;38759;53.396;6.722;2023-12-07T04:16:18;16.48;;;10.52;;
52894;SDS011;38759;53.396;6.722;2023-12-07T04:18:44;17.55;;;10.95;;
52894;SDS011;38759;53.396;6.722;2023-12-07T04:21:10;14.82;;;10.07;;
52894;SDS011;38759;53.396;6.722;2023-12-07T04:23:35;17.45;;;10.10;;
52894;SDS011;38759;53.396;6.722;2023-12-07T04:26:01;16.35;;;10.23;;
52894;SDS011;38759;53.396;6.722;2023-12-07T04:28:27;16.85;;;9.23;;
52894;SDS011;38759;53.396;6.722;2023-12-07T04:30:52;13.68;;;8.68;;
52894;SDS011;38759;53.396;6.722;2023-12-07T04:33:18;17.33;;;9.55;;
52894;SDS011;38759;53.396;6.722;2023-12-07T04:35:44;16.63;;;9.98;;
52894;SDS011;38759;53.396;6.722;2023-12-07T04:38:10;15.90;;;8.95;;
52894;SDS011;38759;53.396;6.722;2023-12-07T04:40:35;18.85;;;9.27;;
52894;SDS011;38759;53.396;6.722;2023-12-07T04:43:01;16.90;;;10.48;;
52894;SDS011;38759;53.396;6.722;2023-12-07T04:45:26;15.48;;;9.57;;
52894;SDS011;38759;53.396;6.722;2023-12-07T04:47:52;18.42;;;8.95;;
52894;SDS011;38759;53.396;6.722;2023-12-07T04:50:18;16.52;;;9.43;;
52894;SDS011;38759;53.396;6.722;2023-12-07T04:52:44;14.82;;;9.25;;
52894;SDS011;38759;53.396;6.722;2023-12-07T04:55:09;15.05;;;9.32;;
52894;SDS011;38759;53.396;6.722;2023-12-07T04:57:35;15.05;;;9.15;;
52894;SDS011;38759;53.396;6.722;2023-12-07T05:00:02;17.23;;;9.75;;
52894;SDS011;38759;53.396;6.722;2023-12-07T05:02:31;16.15;;;8.10;;
52894;SDS011;38759;53.396;6.722;2023-12-07T05:04:57;20.17;;;9.80;;
52894;SDS011;38759;53.396;6.722;2023-12-07T05:07:23;19.35;;;9.65;;
52894;SDS011;38759;53.396;6.722;2023-12-07T05:09:49;16.25;;;9.20;;
52894;SDS011;38759;53.396;6.722;2023-12-07T05:12:16;15.50;;;9.27;;
52894;SDS011;38759;53.396;6.722;2023-12-07T05:14:42;16.98;;;9.07;;
52894;SDS011;38759;53.396;6.722;2023-12-07T05:17:07;15.10;;;9.02;;
52894;SDS011;38759;53.396;6.722;2023-12-07T05:19:33;15.07;;;8.43;;
52894;SDS011;38759;53.396;6.722;2023-12-07T05:21:59;16.27;;;8.85;;
52894;SDS011;38759;53.396;6.722;2023-12-07T05:24:25;18.30;;;10.38;;
52894;SDS011;38759;53.396;6.722;2023-12-07T05:26:50;16.80;;;8.55;;
52894;SDS011;38759;53.396;6.722;2023-12-07T05:29:17;18.52;;;9.95;;
52894;SDS011;38759;53.396;6.722;2023-12-07T05:31:43;16.45;;;9.20;;
52894;SDS011;38759;53.396;6.722;2023-12-07T05:34:08;19.13;;;10.23;;
52894;SDS011;38759;53.396;6.722;2023-12-07T05:36:34;14.65;;;8.35;;
52894;SDS011;38759;53.396;6.722;2023-12-07T05:39:00;15.95;;;8.60;;
52894;SDS011;38759;53.396;6.722;2023-12-07T05:41:26;16.27;;;8.52;;
52894;SDS011;38759;53.396;6.722;2023-12-07T05:43:52;15.13;;;8.50;;
52894;SDS011;38759;53.396;6.722;2023-12-07T05:46:18;16.42;;;8.70;;
52894;SDS011;38759;53.396;6.722;2023-12-07T05:48:46;14.70;;;9.40;;
52894;SDS011;38759;53.396;6.722;2023-12-07T05:51:13;13.65;;;8.55;;
52894;SDS011;38759;53.396;6.722;2023-12-07T05:53:42;16.70;;;10.40;;
52894;SDS011;38759;53.396;6.722;2023-12-07T05:56:08;14.23;;;8.75;;
52894;SDS011;38759;53.396;6.722;2023-12-07T05:58:35;14.75;;;9.40;;
52894;SDS011;38759;53.396;6.722;2023-12-07T06:01:01;16.75;;;9.80;;
52894;SDS011;38759;53.396;6.722;2023-12-07T06:03:28;17.70;;;9.98;;
52894;SDS011;38759;53.396;6.722;2023-12-07T06:05:54;15.70;;;9.25;;
52894;SDS011;38759;53.396;6.722;2023-12-07T06:08:20;16.70;;;9.48;;
52894;SDS011;38759;53.396;6.722;2023-12-07T06:10:47;15.23;;;9.40;;
52894;SDS011;38759;53.396;6.722;2023-12-07T06:13:13;16.60;;;9.13;;
52894;SDS011;38759;53.396;6.722;2023-12-07T06:15:39;16.75;;;9.57;;
52894;SDS011;38759;53.396;6.722;2023-12-07T06:18:05;16.60;;;8.07;;
52894;SDS011;38759;53.396;6.722;2023-12-07T06:20:31;12.60;;;7.25;;
52894;SDS011;38759;53.396;6.722;2023-12-07T06:22:57;16.00;;;7.63;;
52894;SDS011;38759;53.396;6.722;2023-12-07T06:25:23;13.60;;;7.28;;
52894;SDS011;38759;53.396;6.722;2023-12-07T06:27:49;14.40;;;9.18;;
52894;SDS011;38759;53.396;6.722;2023-12-07T06:30:15;14.10;;;9.20;;
52894;SDS011;38759;53.396;6.722;2023-12-07T06:32:41;17.48;;;9.52;;
52894;SDS011;38759;53.396;6.722;2023-12-07T06:35:07;12.40;;;8.02;;
52894;SDS011;38759;53.396;6.722;2023-12-07T06:37:33;16.23;;;9.60;;
52894;SDS011;38759;53.396;6.722;2023-12-07T06:39:59;16.10;;;9.20;;
52894;SDS011;38759;53.396;6.722;2023-12-07T06:42:25;15.68;;;8.80;;
52894;SDS011;38759;53.396;6.722;2023-12-07T06:44:51;15.95;;;8.27;;
52894;SDS011;38759;53.396;6.722;2023-12-07T06:47:17;14.57;;;8.55;;
52894;SDS011;38759;53.396;6.722;2023-12-07T06:49:43;16.77;;;8.80;;
52894;SDS011;38759;53.396;6.722;2023-12-07T06:52:11;13.75;;;7.95;;
52894;SDS011;38759;53.396;6.722;2023-12-07T06:54:37;14.45;;;9.02;;
52894;SDS011;38759;53.396;6.722;2023-12-07T06:57:04;14.48;;;8.35;;
52894;SDS011;38759;53.396;6.722;2023-12-07T06:59:32;16.60;;;8.20;;
52894;SDS011;38759;53.396;6.722;2023-12-07T07:01:58;15.48;;;7.22;;
52894;SDS011;38759;53.396;6.722;2023-12-07T07:04:23;11.48;;;7.22;;
52894;SDS011;38759;53.396;6.722;2023-12-07T07:06:49;13.25;;;9.00;;
52894;SDS011;38759;53.396;6.722;2023-12-07T07:09:15;14.52;;;8.75;;
52894;SDS011;38759;53.396;6.722;2023-12-07T07:11:41;17.42;;;8.75;;
52894;SDS011;38759;53.396;6.722;2023-12-07T07:14:12;16.58;;;9.50;;
52894;SDS011;38759;53.396;6.722;2023-12-07T07:16:38;18.15;;;9.20;;
52894;SDS011;38759;53.396;6.722;2023-12-07T07:19:03;17.40;;;9.20;;
52894;SDS011;38759;53.396;6.722;2023-12-07T07:21:29;31.50;;;12.95;;
52894;SDS011;38759;53.396;6.722;2023-12-07T07:23:55;39.80;;;15.60;;
52894;SDS011;38759;53.396;6.722;2023-12-07T07:26:21;23.40;;;11.68;;
52894;SDS011;38759;53.396;6.722;2023-12-07T07:28:47;19.83;;;10.18;;
52894;SDS011;38759;53.396;6.722;2023-12-07T07:31:13;17.80;;;8.80;;
52894;SDS011;38759;53.396;6.722;2023-12-07T07:33:38;20.30;;;9.40;;
52894;SDS011;38759;53.396;6.722;2023-12-07T07:36:04;16.70;;;9.02;;
52894;SDS011;38759;53.396;6.722;2023-12-07T07:38:30;13.77;;;8.20;;
52894;SDS011;38759;53.396;6.722;2023-12-07T07:40:55;15.85;;;8.85;;
52894;SDS011;38759;53.396;6.722;2023-12-07T07:43:21;14.68;;;8.73;;
52894;SDS011;38759;53.396;6.722;2023-12-07T07:45:47;13.60;;;8.20;;
52894;SDS011;38759;53.396;6.722;2023-12-07T07:48:12;14.00;;;8.30;;
52894;SDS011;38759;53.396;6.722;2023-12-07T07:50:38;15.88;;;8.95;;
52894;SDS011;38759;53.396;6.722;2023-12-07T07:53:04;14.10;;;8.95;;
52894;SDS011;38759;53.396;6.722;2023-12-07T07:55:30;18.83;;;8.68;;
52894;SDS011;38759;53.396;6.722;2023-12-07T07:57:56;16.00;;;8.98;;
52894;SDS011;38759;53.396;6.722;2023-12-07T08:00:22;16.42;;;9.10;;
52894;SDS011;38759;53.396;6.722;2023-12-07T08:02:51;16.92;;;9.00;;
52894;SDS011;38759;53.396;6.722;2023-12-07T08:05:17;15.68;;;9.18;;
52894;SDS011;38759;53.396;6.722;2023-12-07T08:07:43;15.15;;;9.38;;
52894;SDS011;38759;53.396;6.722;2023-12-07T08:10:12;15.63;;;10.27;;
52894;SDS011;38759;53.396;6.722;2023-12-07T08:12:39;15.85;;;9.23;;
52894;SDS011;38759;53.396;6.722;2023-12-07T08:15:05;14.60;;;9.00;;
52894;SDS011;38759;53.396;6.722;2023-12-07T08:17:36;14.55;;;10.07;;
52894;SDS011;38759;53.396;6.722;2023-12-07T08:20:03;20.25;;;10.35;;
52894;SDS011;38759;53.396;6.722;2023-12-07T08:22:31;16.52;;;10.73;;
52894;SDS011;38759;53.396;6.722;2023-12-07T08:24:56;19.20;;;13.40;;
52894;SDS011;38759;53.396;6.722;2023-12-07T08:27:22;17.45;;;9.80;;
52894;SDS011;38759;53.396;6.722;2023-12-07T08:29:48;22.00;;;10.15;;
52894;SDS011;38759;53.396;6.722;2023-12-07T08:32:13;18.52;;;9.45;;
52894;SDS011;38759;53.396;6.722;2023-12-07T08:34:40;18.00;;;9.63;;
52894;SDS011;38759;53.396;6.722;2023-12-07T08:37:06;16.00;;;9.02;;
52894;SDS011;38759;53.396;6.722;2023-12-07T08:39:32;15.98;;;9.35;;
52894;SDS011;38759;53.396;6.722;2023-12-07T08:41:58;16.90;;;9.30;;
52894;SDS011;38759;53.396;6.722;2023-12-07T08:44:24;18.77;;;10.50;;
52894;SDS011;38759;53.396;6.722;2023-12-07T08:46:49;20.35;;;11.27;;
52894;SDS011;38759;53.396;6.722;2023-12-07T08:49:15;19.10;;;9.88;;
52894;SDS011;38759;53.396;6.722;2023-12-07T08:51:41;18.70;;;9.50;;
52894;SDS011;38759;53.396;6.722;2023-12-07T08:54:06;22.25;;;11.38;;
52894;SDS011;38759;53.396;6.722;2023-12-07T08:56:32;18.15;;;10.50;;
52894;SDS011;38759;53.396;6.722;2023-12-07T08:58:57;17.85;;;9.60;;
52894;SDS011;38759;53.396;6.722;2023-12-07T09:01:23;15.68;;;9.88;;
52894;SDS011;38759;53.396;6.722;2023-12-07T09:03:49;20.15;;;9.40;;
52894;SDS011;38759;53.396;6.722;2023-12-07T09:06:15;13.93;;;8.57;;
52894;SDS011;38759;53.396;6.722;2023-12-07T09:08:40;14.77;;;8.48;;
52894;SDS011;38759;53.396;6.722;2023-12-07T09:11:06;17.52;;;9.73;;
52894;SDS011;38759;53.396;6.722;2023-12-07T09:13:31;18.70;;;10.10;;
52894;SDS011;38759;53.396;6.722;2023-12-07T09:15:57;16.88;;;9.90;;
52894;SDS011;38759;53.396;6.722;2023-12-07T09:18:23;19.13;;;10.73;;
52894;SDS011;38759;53.396;6.722;2023-12-07T09:20:49;20.33;;;12.25;;
52894;SDS011;38759;53.396;6.722;2023-12-07T09:23:15;21.85;;;12.85;;
52894;SDS011;38759;53.396;6.722;2023-12-07T09:25:41;23.08;;;12.13;;
52894;SDS011;38759;53.396;6.722;2023-12-07T09:28:07;18.65;;;11.32;;
52894;SDS011;38759;53.396;6.722;2023-12-07T09:30:33;21.25;;;12.15;;
52894;SDS011;38759;53.396;6.722;2023-12-07T09:32:59;22.45;;;12.73;;
52894;SDS011;38759;53.396;6.722;2023-12-07T09:35:28;19.23;;;11.55;;
52894;SDS011;38759;53.396;6.722;2023-12-07T09:37:53;20.75;;;11.00;;
52894;SDS011;38759;53.396;6.722;2023-12-07T09:40:23;22.35;;;10.80;;
52894;SDS011;38759;53.396;6.722;2023-12-07T09:42:49;21.45;;;12.35;;
52894;SDS011;38759;53.396;6.722;2023-12-07T09:45:15;20.95;;;12.43;;
52894;SDS011;38759;53.396;6.722;2023-12-07T09:47:46;22.45;;;12.35;;
52894;SDS011;38759;53.396;6.722;2023-12-07T09:50:13;22.10;;;12.02;;
52894;SDS011;38759;53.396;6.722;2023-12-07T09:52:47;19.52;;;12.07;;
52894;SDS011;38759;53.396;6.722;2023-12-07T09:55:14;21.45;;;11.68;;
52894;SDS011;38759;53.396;6.722;2023-12-07T09:57:45;21.42;;;11.77;;
52894;SDS011;38759;53.396;6.722;2023-12-07T10:00:11;23.48;;;11.55;;
52894;SDS011;38759;53.396;6.722;2023-12-07T10:02:40;20.75;;;11.18;;
52894;SDS011;38759;53.396;6.722;2023-12-07T10:05:10;21.15;;;12.93;;
52894;SDS011;38759;53.396;6.722;2023-12-07T10:07:42;21.55;;;12.63;;
52894;SDS011;38759;53.396;6.722;2023-12-07T10:10:09;20.27;;;11.50;;
52894;SDS011;38759;53.396;6.722;2023-12-07T10:12:44;21.63;;;12.82;;
52894;SDS011;38759;53.396;6.722;2023-12-07T10:15:13;21.00;;;11.98;;
52894;SDS011;38759;53.396;6.722;2023-12-07T10:18:01;25.73;;;14.40;;
52894;SDS011;38759;53.396;6.722;2023-12-07T10:20:26;22.38;;;13.40;;
52894;SDS011;38759;53.396;6.722;2023-12-07T10:25:41;19.20;;;11.77;;
52894;SDS011;38759;53.396;6.722;2023-12-07T10:28:07;22.40;;;12.80;;
52894;SDS011;38759;53.396;6.722;2023-12-07T10:30:36;20.13;;;13.60;;
52894;SDS011;38759;53.396;6.722;2023-12-07T10:33:04;24.45;;;13.27;;
52894;SDS011;38759;53.396;6.722;2023-12-07T10:35:32;22.42;;;12.68;;
52894;SDS011;38759;53.396;6.722;2023-12-07T10:37:57;24.05;;;14.38;;
52894;SDS011;38759;53.396;6.722;2023-12-07T10:40:23;21.85;;;12.73;;
52894;SDS011;38759;53.396;6.722;2023-12-07T10:42:49;28.90;;;14.77;;
52894;SDS011;38759;53.396;6.722;2023-12-07T10:45:21;23.35;;;15.15;;
52894;SDS011;38759;53.396;6.722;2023-12-07T10:47:50;31.20;;;14.45;;
52894;SDS011;38759;53.396;6.722;2023-12-07T10:50:21;31.55;;;13.95;;
52894;SDS011;38759;53.396;6.722;2023-12-07T10:52:51;27.95;;;14.50;;
52894;SDS011;38759;53.396;6.722;2023-12-07T10:55:21;26.95;;;13.23;;
52894;SDS011;38759;53.396;6.722;2023-12-07T10:57:53;27.15;;;13.27;;
52894;SDS011;38759;53.396;6.722;2023-12-07T11:00:21;26.55;;;14.75;;
52894;SDS011;38759;53.396;6.722;2023-12-07T11:02:52;26.88;;;14.68;;
52894;SDS011;38759;53.396;6.722;2023-12-07T11:05:18;25.08;;;14.57;;
52894;SDS011;38759;53.396;6.722;2023-12-07T11:07:59;30.33;;;15.75;;
52894;SDS011;38759;53.396;6.722;2023-12-07T11:15:52;28.58;;;15.77;;
52894;SDS011;38759;53.396;6.722;2023-12-07T11:18:18;29.70;;;17.23;;
52894;SDS011;38759;53.396;6.722;2023-12-07T11:20:44;29.00;;;17.20;;
52894;SDS011;38759;53.396;6.722;2023-12-07T11:23:17;40.30;;;18.98;;
52894;SDS011;38759;53.396;6.722;2023-12-07T11:25:46;32.33;;;19.00;;
52894;SDS011;38759;53.396;6.722;2023-12-07T11:28:13;34.53;;;19.45;;
52894;SDS011;38759;53.396;6.722;2023-12-07T11:30:44;30.27;;;18.20;;
52894;SDS011;38759;53.396;6.722;2023-12-07T11:33:10;26.63;;;15.82;;
52894;SDS011;38759;53.396;6.722;2023-12-07T11:36:13;28.33;;;17.08;;
52894;SDS011;38759;53.396;6.722;2023-12-07T11:38:38;26.02;;;15.95;;
52894;SDS011;38759;53.396;6.722;2023-12-07T11:41:23;23.88;;;14.40;;
52894;SDS011;38759;53.396;6.722;2023-12-07T11:43:49;23.90;;;14.07;;
52894;SDS011;38759;53.396;6.722;2023-12-07T11:46:18;23.88;;;14.40;;
52894;SDS011;38759;53.396;6.722;2023-12-07T11:48:46;22.00;;;14.52;;
52894;SDS011;38759;53.396;6.722;2023-12-07T11:51:13;23.73;;;13.10;;
52894;SDS011;38759;53.396;6.722;2023-12-07T11:53:39;24.80;;;13.32;;
52894;SDS011;38759;53.396;6.722;2023-12-07T11:56:05;24.42;;;14.27;;
52894;SDS011;38759;53.396;6.722;2023-12-07T11:58:38;22.77;;;13.73;;
52894;SDS011;38759;53.396;6.722;2023-12-07T12:01:04;24.08;;;13.93;;
52894;SDS011;38759;53.396;6.722;2023-12-07T12:03:32;21.63;;;13.60;;
52894;SDS011;38759;53.396;6.722;2023-12-07T12:05:58;20.70;;;13.93;;
52894;SDS011;38759;53.396;6.722;2023-12-07T12:08:24;24.73;;;14.65;;
52894;SDS011;38759;53.396;6.722;2023-12-07T12:10:50;20.80;;;12.85;;
52894;SDS011;38759;53.396;6.722;2023-12-07T12:13:25;21.08;;;12.85;;
52894;SDS011;38759;53.396;6.722;2023-12-07T12:16:01;20.88;;;13.20;;
52894;SDS011;38759;53.396;6.722;2023-12-07T12:18:28;25.92;;;14.18;;
52894;SDS011;38759;53.396;6.722;2023-12-07T12:20:54;25.40;;;14.02;;
52894;SDS011;38759;53.396;6.722;2023-12-07T12:23:20;19.10;;;12.18;;
52894;SDS011;38759;53.396;6.722;2023-12-07T12:25:46;17.98;;;11.77;;
52894;SDS011;38759;53.396;6.722;2023-12-07T12:28:15;19.95;;;12.98;;
52894;SDS011;38759;53.396;6.722;2023-12-07T12:30:43;21.70;;;13.18;;
52894;SDS011;38759;53.396;6.722;2023-12-07T12:33:09;20.45;;;10.60;;
52894;SDS011;38759;53.396;6.722;2023-12-07T12:35:35;17.98;;;10.25;;
52894;SDS011;38759;53.396;6.722;2023-12-07T12:38:00;17.70;;;11.00;;
52894;SDS011;38759;53.396;6.722;2023-12-07T12:40:27;19.10;;;11.95;;
52894;SDS011;38759;53.396;6.722;2023-12-07T12:42:57;23.38;;;13.27;;
52894;SDS011;38759;53.396;6.722;2023-12-07T12:45:23;24.73;;;11.85;;
52894;SDS011;38759;53.396;6.722;2023-12-07T12:47:49;27.75;;;15.13;;
52894;SDS011;38759;53.396;6.722;2023-12-07T12:53:06;19.67;;;13.10;;
52894;SDS011;38759;53.396;6.722;2023-12-07T12:55:34;19.52;;;12.15;;
52894;SDS011;38759;53.396;6.722;2023-12-07T12:58:01;23.05;;;13.70;;
52894;SDS011;38759;53.396;6.722;2023-12-07T13:00:29;44.83;;;27.88;;
52894;SDS011;38759;53.396;6.722;2023-12-07T13:02:55;81.90;;;42.53;;
52894;SDS011;38759;53.396;6.722;2023-12-07T13:05:21;24.83;;;14.57;;
52894;SDS011;38759;53.396;6.722;2023-12-07T13:07:48;38.30;;;19.38;;
52894;SDS011;38759;53.396;6.722;2023-12-07T13:10:17;29.48;;;13.90;;
52894;SDS011;38759;53.396;6.722;2023-12-07T13:12:42;18.60;;;11.75;;
52894;SDS011;38759;53.396;6.722;2023-12-07T13:15:11;18.20;;;11.82;;
52894;SDS011;38759;53.396;6.722;2023-12-07T13:17:40;20.73;;;10.43;;
52894;SDS011;38759;53.396;6.722;2023-12-07T13:20:07;21.45;;;12.35;;
52894;SDS011;38759;53.396;6.722;2023-12-07T13:22:36;20.58;;;12.50;;
52894;SDS011;38759;53.396;6.722;2023-12-07T13:25:05;18.55;;;11.45;;
52894;SDS011;38759;53.396;6.722;2023-12-07T13:27:35;18.02;;;12.43;;
52894;SDS011;38759;53.396;6.722;2023-12-07T13:30:01;19.42;;;11.60;;
52894;SDS011;38759;53.396;6.722;2023-12-07T13:32:34;18.40;;;11.55;;
52894;SDS011;38759;53.396;6.722;2023-12-07T13:35:02;22.70;;;13.55;;
52894;SDS011;38759;53.396;6.722;2023-12-07T13:37:29;22.00;;;13.45;;
52894;SDS011;38759;53.396;6.722;2023-12-07T13:39:55;28.70;;;15.10;;
52894;SDS011;38759;53.396;6.722;2023-12-07T13:42:26;30.25;;;12.45;;
52894;SDS011;38759;53.396;6.722;2023-12-07T13:44:55;47.63;;;11.57;;
52894;SDS011;38759;53.396;6.722;2023-12-07T13:47:26;70.70;;;13.07;;
52894;SDS011;38759;53.396;6.722;2023-12-07T13:49:56;48.55;;;14.38;;
52894;SDS011;38759;53.396;6.722;2023-12-07T13:52:23;30.75;;;13.20;;
52894;SDS011;38759;53.396;6.722;2023-12-07T13:54:49;118.57;;;15.43;;
52894;SDS011;38759;53.396;6.722;2023-12-07T13:57:15;28.30;;;14.43;;
52894;SDS011;38759;53.396;6.722;2023-12-07T13:59:41;41.08;;;16.33;;
52894;SDS011;38759;53.396;6.722;2023-12-07T14:02:07;50.10;;;16.52;;
52894;SDS011;38759;53.396;6.722;2023-12-07T14:04:33;38.55;;;15.93;;
52894;SDS011;38759;53.396;6.722;2023-12-07T14:07:09;35.45;;;15.95;;
52894;SDS011;38759;53.396;6.722;2023-12-07T14:09:42;39.03;;;15.40;;
52894;SDS011;38759;53.396;6.722;2023-12-07T14:12:09;29.88;;;14.98;;
52894;SDS011;38759;53.396;6.722;2023-12-07T14:14:38;31.92;;;14.82;;
52894;SDS011;38759;53.396;6.722;2023-12-07T14:17:04;37.67;;;15.13;;
52894;SDS011;38759;53.396;6.722;2023-12-07T14:19:33;46.30;;;15.07;;
52894;SDS011;38759;53.396;6.722;2023-12-07T14:22:00;59.83;;;19.60;;
52894;SDS011;38759;53.396;6.722;2023-12-07T14:24:26;33.42;;;13.57;;
52894;SDS011;38759;53.396;6.722;2023-12-07T14:26:52;42.50;;;15.75;;
52894;SDS011;38759;53.396;6.722;2023-12-07T14:29:19;95.45;;;15.98;;
52894;SDS011;38759;53.396;6.722;2023-12-07T14:31:48;44.00;;;13.95;;
52894;SDS011;38759;53.396;6.722;2023-12-07T14:34:14;54.97;;;13.80;;
52894;SDS011;38759;53.396;6.722;2023-12-07T14:36:41;42.22;;;12.43;;
52894;SDS011;38759;53.396;6.722;2023-12-07T14:39:07;58.70;;;16.23;;
52894;SDS011;38759;53.396;6.722;2023-12-07T14:41:33;41.67;;;15.88;;